Time;durP1;ratioP1;P1;durP2;ratioP2;P2;SDS_P1;SDS_P2;PMS_P1;PMS_P2;Temp;Humidity;BMP_temperature;BMP_pressure;BME280_temperature;BME280_humidity;BME280_pressure;Samples;Min_cycle;Max_cycle;Signal;HPM_P1;HPM_P2
2021/03/23 00:00:34;;;;;;;34.87;17.57;;;;;;;1.57;65.25;100532.31;98736;1155;70803;-61
2021/03/23 00:02:51;;;;;;;30.90;15.85;;;;;;;1.59;64.67;100533.03;98733;1155;85212;-62
2021/03/23 00:04:57;;;;;;;29.03;14.03;;;;;;;1.61;65.02;100525.78;98717;1154;78399;-62
2021/03/23 00:07:03;;;;;;;25.47;12.83;;;;;;;1.63;65.37;100533.63;98709;1161;64257;-63
2021/03/23 00:09:12;;;;;;;23.77;11.90;;;;;;;1.63;65.22;100531.81;98724;1161;80447;-61
2021/03/23 00:11:23;;;;;;;23.30;10.60;;;;;;;1.63;65.33;100533.63;98745;1161;72934;-62
2021/03/23 00:13:30;;;;;;;20.33;10.70;;;;;;;1.63;65.39;100525.63;98716;1155;83329;-61
2021/03/23 00:15:36;;;;;;;22.53;10.30;;;;;;;1.64;65.08;100525.52;98701;1155;77358;-61
2021/03/23 00:17:41;;;;;;;19.67;10.13;;;;;;;1.63;65.22;100518.50;98700;1155;64360;-61
2021/03/23 00:19:50;;;;;;;21.80;9.87;;;;;;;1.64;65.54;100522.86;98734;1161;81583;-61
2021/03/23 00:21:56;;;;;;;18.27;8.97;;;;;;;1.67;65.20;100519.94;98734;1155;70826;-60
2021/03/23 00:24:02;;;;;;;21.77;11.67;;;;;;;1.69;65.22;100517.98;98691;1155;84710;-59
2021/03/23 00:26:09;;;;;;;22.60;10.83;;;;;;;1.72;65.09;100516.88;98811;1155;77390;-59
2021/03/23 00:28:15;;;;;;;19.53;9.97;;;;;;;1.73;65.24;100516.73;98744;1155;64136;-59
2021/03/23 00:30:22;;;;;;;21.43;10.13;;;;;;;1.72;65.46;100517.73;98780;1161;81150;-59
2021/03/23 00:32:28;;;;;;;18.13;10.10;;;;;;;1.74;64.92;100521.09;98753;1159;72114;-60
2021/03/23 00:34:33;;;;;;;25.00;12.65;;;;;;;1.74;65.16;100513.11;98718;1161;84017;-59
2021/03/23 00:36:43;;;;;;;27.10;14.10;;;;;;;1.76;65.17;100516.48;98701;1155;76829;-60
2021/03/23 00:38:53;;;;;;;26.87;13.87;;;;;;;1.76;64.90;100508.48;98716;1161;64209;-60
2021/03/23 00:40:59;;;;;;;25.37;14.23;;;;;;;1.77;64.98;100504.86;98715;1159;82074;-62
2021/03/23 00:43:08;;;;;;;25.55;12.85;;;;;;;1.79;64.80;100510.89;98727;1155;70796;-63
2021/03/23 00:45:15;;;;;;;20.50;11.00;;;;;;;1.79;64.79;100507.38;98739;1155;84698;-60
2021/03/23 00:47:20;;;;;;;19.07;10.00;;;;;;;1.81;64.77;100499.27;98702;1155;77849;-59
2021/03/23 00:49:26;;;;;;;19.10;10.70;;;;;;;1.82;64.63;100503.61;98742;1155;64046;-58
2021/03/23 00:51:32;;;;;;;18.10;9.40;;;;;;;1.82;65.26;100498.28;98818;1161;81869;-60
2021/03/23 00:53:38;;;;;;;22.57;11.23;;;;;;;1.82;64.68;100508.94;98817;1154;70773;-59
2021/03/23 00:55:46;;;;;;;24.87;10.63;;;;;;;1.82;64.98;100503.61;98816;1155;84362;-61
2021/03/23 00:57:52;;;;;;;35.90;16.40;;;;;;;1.81;64.83;100505.45;98753;1161;77587;-62
2021/03/23 00:59:58;;;;;;;29.50;14.07;;;;;;;1.81;64.66;100496.61;98788;1155;64215;-61
2021/03/23 01:02:04;;;;;;;25.90;12.20;;;;;;;1.80;64.92;100501.09;98796;1161;82316;-61
2021/03/23 01:04:10;;;;;;;27.27;13.23;;;;;;;1.79;64.85;100496.73;98775;1155;71635;-62
2021/03/23 01:06:17;;;;;;;24.67;11.83;;;;;;;1.80;64.96;100493.09;98795;1155;84692;-62
2021/03/23 01:08:26;;;;;;;21.97;10.60;;;;;;;1.80;64.86;100501.09;98752;1155;78478;-62
2021/03/23 01:10:33;;;;;;;21.07;10.60;;;;;;;1.79;65.06;100494.06;98775;1155;64340;-60
2021/03/23 01:12:40;;;;;;;20.87;10.40;;;;;;;1.77;65.14;100499.53;98770;1161;80592;-60
2021/03/23 01:14:55;;;;;;;20.20;10.67;;;;;;;1.78;64.80;100500.38;98746;1155;71870;-60
2021/03/23 01:17:00;;;;;;;16.47;9.10;;;;;;;1.79;64.53;100507.38;98776;1155;84502;-62
2021/03/23 01:19:06;;;;;;;19.83;9.73;;;;;;;1.79;64.56;100505.56;98718;1155;77422;-63
2021/03/23 01:21:12;;;;;;;24.45;10.10;;;;;;;1.78;64.72;100495.06;98759;1155;64347;-60
2021/03/23 01:23:20;;;;;;;20.67;10.90;;;;;;;1.76;64.76;100497.84;98707;1161;82394;-62
2021/03/23 01:25:26;;;;;;;21.10;10.50;;;;;;;1.76;64.71;100492.51;98756;1161;71700;-61
2021/03/23 01:27:32;;;;;;;18.50;10.30;;;;;;;1.72;64.63;100480.45;98742;1159;83860;-60
2021/03/23 01:29:44;;;;;;;17.43;9.37;;;;;;;1.72;64.58;100480.45;98736;1155;77506;-62
2021/03/23 01:31:50;;;;;;;19.80;9.70;;;;;;;1.71;64.77;100484.08;98726;1155;64081;-63
2021/03/23 01:33:56;;;;;;;16.93;8.57;;;;;;;1.73;65.10;100483.96;98720;1159;82823;-63
2021/03/23 01:36:09;;;;;;;20.07;8.50;;;;;;;1.75;65.12;100485.52;98721;1154;71724;-59
2021/03/23 01:38:14;;;;;;;17.50;9.17;;;;;;;1.74;64.93;100478.48;98801;1155;84431;-61
2021/03/23 01:40:25;;;;;;;18.57;9.83;;;;;;;1.74;64.66;100489.14;98751;1154;77618;-62
2021/03/23 01:42:46;;;;;;;22.00;10.57;;;;;;;1.75;64.71;100495.31;98780;1155;64231;-63
2021/03/23 01:45:29;;;;;;;28.00;13.95;;;;;;;1.76;64.84;100487.19;98767;1161;82486;-60
2021/03/23 01:47:34;;;;;;;20.93;10.80;;;;;;;1.76;64.60;100492.51;98755;1159;72063;-60
2021/03/23 01:49:46;;;;;;;22.73;11.63;;;;;;;1.77;64.88;100488.03;98694;1159;84759;-61
2021/03/23 01:51:54;;;;;;;22.83;12.03;;;;;;;1.79;64.71;100491.40;98691;1155;77923;-61
2021/03/23 01:54:11;;;;;;;25.50;13.00;;;;;;;1.81;64.80;100483.30;98723;1155;64337;-61
2021/03/23 01:56:18;;;;;;;23.23;11.93;;;;;;;1.80;64.68;100493.09;98759;1161;81583;-60
2021/03/23 01:58:29;;;;;;;20.83;9.77;;;;;;;1.76;64.57;100491.66;98802;1155;71215;-60
2021/03/23 02:00:35;;;;;;;19.90;10.50;;;;;;;1.77;64.56;100483.55;98786;1155;84390;-62
2021/03/23 02:02:44;;;;;;;23.27;12.50;;;;;;;1.77;64.43;100488.88;98707;1155;78381;-62
2021/03/23 02:04:49;;;;;;;18.90;10.00;;;;;;;1.78;64.44;100479.93;98747;1155;64453;-60
2021/03/23 02:06:55;;;;;;;19.87;9.87;;;;;;;1.81;64.52;100488.63;98749;1161;80560;-62
2021/03/23 02:09:09;;;;;;;19.27;9.83;;;;;;;1.80;64.79;100485.11;98742;1155;72187;-63
2021/03/23 02:11:15;;;;;;;18.53;10.70;;;;;;;1.81;64.70;100481.48;98722;1155;84504;-62
2021/03/23 02:13:21;;;;;;;19.50;10.30;;;;;;;1.80;64.46;100479.78;98737;1155;77601;-62
2021/03/23 02:15:30;;;;;;;18.00;10.30;;;;;;;1.82;64.49;100480.48;98710;1155;64146;-60
2021/03/23 02:17:40;;;;;;;19.03;9.97;;;;;;;1.84;64.26;100483.85;98715;1161;82357;-59
2021/03/23 02:19:47;;;;;;;18.70;9.83;;;;;;;1.85;64.36;100479.38;98722;1155;71609;-61
2021/03/23 02:21:52;;;;;;;17.73;9.70;;;;;;;1.86;64.29;100483.73;98713;1155;84580;-63
2021/03/23 02:23:58;;;;;;;16.93;9.33;;;;;;;1.87;64.51;100488.92;98720;1159;77311;-63
2021/03/23 02:26:06;;;;;;;16.73;8.80;;;;;;;1.88;64.46;100492.44;98712;1161;64213;-61
2021/03/23 02:28:12;;;;;;;20.97;9.83;;;;;;;1.88;64.11;100497.77;98759;1155;81411;-61
2021/03/23 02:30:31;;;;;;;20.93;9.57;;;;;;;1.88;64.36;100492.44;98782;1155;71480;-62
2021/03/23 02:32:37;;;;;;;15.07;8.37;;;;;;;1.90;64.38;100487.81;98752;1154;84040;-62
2021/03/23 02:34:43;;;;;;;18.47;9.40;;;;;;;1.91;64.28;100487.70;98752;1161;77453;-63
2021/03/23 02:36:52;;;;;;;16.37;8.50;;;;;;;1.93;64.25;100490.22;98684;1161;64154;-62
2021/03/23 02:38:58;;;;;;;19.23;9.50;;;;;;;1.93;64.13;100493.73;98724;1161;81996;-61
2021/03/23 02:41:03;;;;;;;16.93;8.50;;;;;;;1.96;63.87;100484.63;98768;1155;70765;-61
2021/03/23 02:43:09;;;;;;;17.80;9.25;;;;;;;1.98;64.41;100490.69;98730;1155;86123;-62
2021/03/23 02:45:16;;;;;;;16.13;8.90;;;;;;;1.99;64.36;100482.55;98688;1161;77488;-59
2021/03/23 02:47:25;;;;;;;17.03;8.77;;;;;;;2.00;64.06;100492.24;98716;1155;64205;-58
2021/03/23 02:49:30;;;;;;;15.03;7.97;;;;;;;2.02;64.23;100484.95;98707;1161;82033;-59
2021/03/23 02:51:37;;;;;;;18.47;8.77;;;;;;;2.04;63.99;100484.80;98737;1155;71408;-62
2021/03/23 02:53:43;;;;;;;16.37;8.57;;;;;;;2.02;64.10;100489.43;98725;1155;85568;-62
2021/03/23 02:55:49;;;;;;;15.63;8.50;;;;;;;2.02;64.04;100481.44;98765;1161;77240;-61
2021/03/23 02:57:55;;;;;;;15.27;8.63;;;;;;;2.02;64.32;100476.11;98756;1155;64206;-59
2021/03/23 03:00:01;;;;;;;14.30;8.20;;;;;;;2.02;63.98;100479.63;98787;1161;82098;-61
2021/03/23 03:02:08;;;;;;;13.60;7.37;;;;;;;2.04;64.03;100482.14;98762;1155;70876;-60
2021/03/23 03:04:14;;;;;;;15.47;8.40;;;;;;;2.04;64.26;100484.80;98700;1155;85108;-61
2021/03/23 03:06:20;;;;;;;16.30;7.93;;;;;;;2.03;63.90;100485.80;98763;1161;78058;-60
2021/03/23 03:08:27;;;;;;;17.90;8.20;;;;;;;2.04;64.08;100479.48;98715;1155;64680;-61
2021/03/23 03:10:32;;;;;;;13.60;7.83;;;;;;;2.05;64.27;100475.84;98698;1161;81584;-62
2021/03/23 03:12:38;;;;;;;15.13;7.50;;;;;;;2.07;63.79;100479.21;98763;1155;70576;-62
2021/03/23 03:14:47;;;;;;;15.27;7.73;;;;;;;2.08;63.93;100478.25;98767;1155;84308;-60
2021/03/23 03:16:53;;;;;;;16.13;8.57;;;;;;;2.06;64.26;100475.70;98712;1155;78238;-64
2021/03/23 03:18:58;;;;;;;14.85;6.85;;;;;;;2.09;64.09;100479.91;98773;1155;64267;-63
2021/03/23 03:21:05;;;;;;;14.13;6.93;;;;;;;2.08;64.06;100472.92;98728;1161;83057;-62
2021/03/23 03:23:11;;;;;;;14.65;7.00;;;;;;;2.09;63.94;100472.77;98807;1155;72133;-62
2021/03/23 03:25:20;;;;;;;13.50;7.15;;;;;;;2.11;63.81;100481.50;98796;1155;84014;-61
2021/03/23 03:27:30;;;;;;;12.93;7.20;;;;;;;2.10;64.01;100481.62;98784;1154;77590;-60
2021/03/23 03:29:36;;;;;;;14.83;6.30;;;;;;;2.08;63.93;100475.59;98771;1155;64423;-59
2021/03/23 03:31:42;;;;;;;11.20;6.90;;;;;;;2.07;63.80;100481.88;98773;1154;81003;-59
2021/03/23 03:33:47;;;;;;;12.13;6.10;;;;;;;2.04;63.84;100482.14;98732;1155;72750;-60
2021/03/23 03:35:54;;;;;;;14.97;6.77;;;;;;;2.05;63.66;100486.50;98739;1155;84733;-60
2021/03/23 03:38:01;;;;;;;11.03;6.03;;;;;;;2.06;63.97;100488.20;98686;1155;78394;-60
2021/03/23 03:40:13;;;;;;;11.47;6.30;;;;;;;2.06;63.94;100497.02;98734;1161;64184;-62
2021/03/23 03:42:19;;;;;;;12.07;6.33;;;;;;;2.06;63.97;100483.69;98749;1159;82134;-62
2021/03/23 03:44:24;;;;;;;13.03;6.30;;;;;;;2.03;63.95;100493.80;98733;1154;70592;-63
2021/03/23 03:46:31;;;;;;;11.80;6.07;;;;;;;2.02;63.76;100502.75;98825;1155;84805;-62
2021/03/23 03:48:38;;;;;;;12.50;6.30;;;;;;;1.97;63.66;100496.98;98659;1155;77329;-61
2021/03/23 03:50:44;;;;;;;12.20;6.03;;;;;;;1.98;63.85;100504.01;98768;1161;64122;-63
2021/03/23 03:52:50;;;;;;;12.13;6.23;;;;;;;1.97;63.86;100500.50;98711;1161;82661;-64
2021/03/23 03:54:56;;;;;;;11.93;5.90;;;;;;;1.96;64.09;100495.28;98737;1155;70629;-63
2021/03/23 03:57:02;;;;;;;11.23;5.87;;;;;;;1.98;63.79;100498.68;98738;1155;85546;-63
2021/03/23 03:59:07;;;;;;;12.03;5.43;;;;;;;1.97;63.73;100503.16;98714;1155;77942;-62
2021/03/23 04:01:13;;;;;;;12.03;6.77;;;;;;;1.98;63.71;100499.50;98686;1154;64328;-62
2021/03/23 04:03:23;;;;;;;9.73;5.20;;;;;;;1.98;64.04;100507.48;98726;1161;82416;-62
2021/03/23 04:05:32;;;;;;;10.77;5.20;;;;;;;1.98;63.88;100502.16;98727;1161;71503;-61
2021/03/23 04:07:38;;;;;;;9.73;4.83;;;;;;;1.98;63.89;100496.02;98735;1161;84119;-61
2021/03/23 04:09:44;;;;;;;9.63;5.33;;;;;;;1.97;63.87;100489.84;98708;1155;79242;-61
2021/03/23 04:11:49;;;;;;;10.03;5.20;;;;;;;1.98;63.93;100491.50;98744;1155;64366;-61
2021/03/23 04:13:55;;;;;;;11.73;5.20;;;;;;;2.00;63.81;100496.72;98747;1161;81542;-61
2021/03/23 04:16:02;;;;;;;11.17;5.07;;;;;;;2.03;63.86;100494.64;98729;1155;71461;-61
2021/03/23 04:18:12;;;;;;;12.27;5.20;;;;;;;1.99;63.84;100497.69;98731;1155;83183;-62
2021/03/23 04:20:30;;;;;;;11.23;5.23;;;;;;;1.99;63.87;100503.86;98700;1155;77996;-62
2021/03/23 04:22:39;;;;;;;11.20;5.23;;;;;;;1.99;63.88;100503.02;98778;1161;64209;-60
2021/03/23 04:24:48;;;;;;;8.47;4.47;;;;;;;1.96;63.92;100508.59;98750;1161;81881;-60
2021/03/23 04:26:56;;;;;;;9.97;4.50;;;;;;;1.96;64.11;100508.59;98724;1155;71431;-63
2021/03/23 04:29:02;;;;;;;9.20;5.47;;;;;;;1.95;64.00;100507.75;98756;1161;84193;-62
2021/03/23 04:31:15;;;;;;;11.43;5.30;;;;;;;1.95;63.98;100501.61;98694;1161;77432;-62
2021/03/23 04:33:25;;;;;;;11.77;4.73;;;;;;;1.94;64.20;100507.90;98740;1155;64193;-62
2021/03/23 04:35:43;;;;;;;11.67;5.30;;;;;;;1.95;64.03;100513.08;98791;1161;81706;-61
2021/03/23 04:37:49;;;;;;;9.23;4.47;;;;;;;1.98;63.95;100509.34;98748;1155;71128;-61
2021/03/23 04:39:58;;;;;;;10.80;4.83;;;;;;;2.01;64.33;100509.05;98730;1155;84244;-62
2021/03/23 04:42:05;;;;;;;10.80;4.57;;;;;;;2.00;63.96;100512.70;98750;1154;76866;-63
2021/03/23 04:44:11;;;;;;;10.03;4.67;;;;;;;2.01;64.16;100511.70;98767;1155;64321;-63
2021/03/23 04:46:21;;;;;;;12.07;4.87;;;;;;;2.03;64.17;100504.45;98665;1159;81989;-63
2021/03/23 04:48:27;;;;;;;9.83;5.33;;;;;;;2.04;63.90;100512.30;98715;1154;71053;-63
2021/03/23 04:50:33;;;;;;;9.70;4.53;;;;;;;2.07;64.36;100508.52;98746;1155;84723;-63
2021/03/23 04:52:39;;;;;;;8.93;5.10;;;;;;;2.09;64.06;100514.55;98709;1155;77539;-63
2021/03/23 04:54:45;;;;;;;14.47;5.60;;;;;;;2.12;64.17;100508.96;98697;1155;64353;-63
2021/03/23 04:56:51;;;;;;;10.43;4.87;;;;;;;2.12;63.96;100517.80;98738;1160;81997;-61
2021/03/23 04:58:59;;;;;;;9.77;5.07;;;;;;;2.13;64.09;100516.84;98756;1155;71740;-62
2021/03/23 05:01:08;;;;;;;11.17;5.33;;;;;;;2.18;64.12;100524.42;98783;1155;84541;-61
2021/03/23 05:03:20;;;;;;;11.07;5.37;;;;;;;2.18;64.19;100524.42;98706;1155;77013;-59
2021/03/23 05:05:26;;;;;;;9.53;5.00;;;;;;;2.20;63.90;100522.47;98708;1155;64462;-60
2021/03/23 05:07:35;;;;;;;9.37;5.07;;;;;;;2.18;64.06;100525.27;98739;1160;82055;-61
2021/03/23 05:09:41;;;;;;;10.63;5.07;;;;;;;2.21;64.25;100524.16;98719;1155;70790;-62
2021/03/23 05:11:46;;;;;;;9.47;4.73;;;;;;;2.23;64.31;100533.71;98677;1155;84386;-63
2021/03/23 05:13:52;;;;;;;13.43;5.77;;;;;;;2.25;64.08;100528.27;98712;1155;76924;-61
2021/03/23 05:15:58;;;;;;;11.13;5.53;;;;;;;2.27;64.42;100531.63;98781;1154;64318;-60
2021/03/23 05:18:07;;;;;;;13.77;6.30;;;;;;;2.28;64.24;100533.33;98743;1161;82104;-61
2021/03/23 05:20:15;;;;;;;12.23;6.27;;;;;;;2.28;64.25;100533.33;98723;1155;71504;-60
2021/03/23 05:22:21;;;;;;;11.93;6.40;;;;;;;2.31;64.28;100533.04;98736;1161;83960;-61
2021/03/23 05:24:27;;;;;;;15.00;7.33;;;;;;;2.32;64.13;100532.07;98701;1161;77356;-61
2021/03/23 05:26:34;;;;;;;15.10;7.10;;;;;;;2.32;64.40;100527.59;98699;1161;64263;-62
2021/03/23 05:28:40;;;;;;;12.40;6.10;;;;;;;2.37;64.52;100529.84;98724;1159;82720;-61
2021/03/23 05:30:54;;;;;;;15.40;6.90;;;;;;;2.34;64.31;100535.44;98726;1155;71566;-62
2021/03/23 05:33:00;;;;;;;14.40;7.10;;;;;;;2.38;64.43;100536.88;98706;1161;85978;-63
2021/03/23 05:35:08;;;;;;;12.80;6.20;;;;;;;2.36;64.42;100530.84;98731;1155;78276;-59
2021/03/23 05:37:13;;;;;;;13.10;7.40;;;;;;;2.37;64.62;100540.50;98759;1159;64253;-61
2021/03/23 05:39:22;;;;;;;13.60;6.80;;;;;;;2.42;64.43;100540.13;98735;1155;81429;-59
2021/03/23 05:41:41;;;;;;;12.15;7.15;;;;;;;2.45;64.25;100538.02;98757;1153;71230;-60
2021/03/23 05:44:02;;;;;;;14.20;7.43;;;;;;;2.49;64.34;100544.78;98719;1155;84234;-61
2021/03/23 05:46:23;;;;;;;12.10;6.93;;;;;;;2.57;64.48;100546.77;98711;1155;77226;-63
2021/03/23 05:48:32;;;;;;;12.53;6.30;;;;;;;2.63;64.41;100543.56;98772;1155;64411;-62
2021/03/23 05:50:40;;;;;;;13.40;6.07;;;;;;;2.67;64.67;100543.15;98779;1161;81512;-62
2021/03/23 05:52:54;;;;;;;12.80;5.87;;;;;;;2.74;64.55;100548.80;98742;1155;71506;-62
2021/03/23 05:55:31;;;;;;;13.47;6.00;;;;;;;2.75;64.75;100551.31;98787;1155;84039;-61
2021/03/23 05:57:45;;;;;;;14.27;7.17;;;;;;;2.77;64.80;100546.71;98744;1155;77067;-61
2021/03/23 05:59:58;;;;;;;14.27;6.37;;;;;;;2.84;64.52;100554.99;98804;1159;64245;-62
2021/03/23 06:02:21;;;;;;;13.97;6.10;;;;;;;2.85;64.79;100556.70;98794;1161;82581;-61
2021/03/23 06:04:37;;;;;;;12.37;6.17;;;;;;;2.90;64.62;100552.64;98769;1161;72272;-61
2021/03/23 06:06:48;;;;;;;15.13;7.97;;;;;;;2.91;65.03;100551.64;98801;1155;84781;-63
2021/03/23 06:08:54;;;;;;;14.80;7.23;;;;;;;2.95;64.62;100558.41;98809;1155;77050;-64
2021/03/23 06:11:53;;;;;;;10.23;6.53;;;;;;;2.96;64.75;100559.25;98786;1155;64367;-62
2021/03/23 06:14:30;;;;;;;15.57;6.87;;;;;;;2.99;64.82;100562.47;98761;1161;82046;-62
2021/03/23 06:16:46;;;;;;;16.10;7.93;;;;;;;3.06;64.68;100561.92;98796;1161;72007;-59
2021/03/23 06:19:03;;;;;;;13.10;6.77;;;;;;;3.10;64.79;100571.36;98825;1155;84146;-59
2021/03/23 06:21:14;;;;;;;15.33;6.83;;;;;;;3.17;64.81;100575.16;98831;1155;77974;-63
2021/03/23 06:23:52;;;;;;;14.03;7.00;;;;;;;3.22;64.89;100576.42;98799;1159;64208;-63
2021/03/23 06:26:15;;;;;;;14.10;6.67;;;;;;;3.25;65.11;100569.97;98710;1161;82487;-63
2021/03/23 06:28:28;;;;;;;;;;;;;;;3.36;65.17;100573.36;98761;1161;72047;-61
2021/03/23 06:30:51;;;;;;;14.80;6.30;;;;;;;3.47;64.73;100577.72;98805;1155;83738;-61
2021/03/23 06:32:58;;;;;;;13.53;5.77;;;;;;;3.58;64.96;100567.75;98794;1155;77625;-61
2021/03/23 06:35:16;;;;;;;14.10;6.33;;;;;;;3.69;64.91;100580.12;98795;1155;64365;-59
2021/03/23 06:37:28;;;;;;;15.37;6.33;;;;;;;3.86;65.22;100566.05;98776;1161;81268;-60
2021/03/23 06:39:37;;;;;;;16.10;7.20;;;;;;;4.06;65.10;100567.72;98732;1161;71567;-61
2021/03/23 06:41:57;;;;;;;19.43;7.97;;;;;;;4.29;65.02;100567.36;98705;1161;84370;-63
2021/03/23 06:44:25;;;;;;;16.93;8.13;;;;;;;4.52;64.72;100572.23;98736;1161;78600;-63
2021/03/23 06:46:43;;;;;;;15.70;6.57;;;;;;;4.71;64.69;100569.48;98712;1161;64142;-60
2021/03/23 06:49:10;;;;;;;14.75;6.65;;;;;;;4.80;64.45;100567.75;98752;1161;81993;-62
2021/03/23 06:51:19;;;;;;;12.07;7.70;;;;;;;4.92;64.18;100571.05;98756;1155;71201;-63
2021/03/23 06:53:31;;;;;;;15.90;7.70;;;;;;;4.99;64.34;100559.61;98738;1161;83870;-64
2021/03/23 06:55:40;;;;;;;15.73;7.37;;;;;;;5.21;64.23;100571.74;98750;1161;78135;-62
2021/03/23 06:57:47;;;;;;;12.70;6.80;;;;;;;5.35;64.03;100566.72;98760;1155;64024;-62
2021/03/23 07:00:04;;;;;;;10.10;5.53;;;;;;;5.50;63.86;100569.69;98727;1161;82514;-64
2021/03/23 07:02:32;;;;;;;10.97;5.53;;;;;;;5.59;63.49;100568.78;98730;1155;71142;-64
2021/03/23 07:04:40;;;;;;;11.03;6.03;;;;;;;5.70;63.42;100573.06;98736;1156;84982;-64
2021/03/23 07:07:14;;;;;;;9.90;5.67;;;;;;;5.78;63.09;100582.02;98756;1161;76833;-64
2021/03/23 07:09:27;;;;;;;11.25;6.33;;;;;;;5.92;63.37;100572.63;98723;1159;64261;-64
2021/03/23 07:11:56;;;;;;;12.07;6.50;;;;;;;6.08;63.19;100571.89;99401;1137;81619;-61
2021/03/23 07:14:23;;;;;;;10.90;5.83;;;;;;;6.33;62.91;100577.28;98893;1139;72018;-61
2021/03/23 07:16:32;;;;;;;11.77;5.90;;;;;;;6.74;62.93;100572.14;98927;1139;83377;-64
2021/03/23 07:18:40;;;;;;;9.77;5.90;;;;;;;6.97;61.97;100574.11;98838;1139;77876;-61
2021/03/23 07:20:50;;;;;;;13.07;5.80;;;;;;;7.14;61.46;100575.02;99001;1139;64327;-64
2021/03/23 07:23:00;;;;;;;11.73;6.40;;;;;;;7.41;61.92;100579.28;98664;1161;81955;-65
2021/03/23 07:25:30;;;;;;;10.70;5.60;;;;;;;7.38;60.93;100580.45;98720;1155;71392;-64
2021/03/23 07:27:39;;;;;;;10.97;6.23;;;;;;;7.53;60.74;100578.78;98762;1161;83716;-61
2021/03/23 07:29:46;;;;;;;11.33;6.17;;;;;;;7.68;60.52;100577.14;98734;1155;77083;-60
2021/03/23 07:32:11;;;;;;;9.47;5.67;;;;;;;7.77;60.20;100585.22;98755;1161;64211;-61
2021/03/23 07:34:30;;;;;;;10.87;6.30;;;;;;;7.89;60.35;100582.02;98716;1161;81233;-62
2021/03/23 07:36:43;;;;;;;9.50;5.83;;;;;;;8.02;59.42;100585.03;98792;1155;71487;-61
2021/03/23 07:38:55;;;;;;;13.83;6.30;;;;;;;8.12;59.44;100584.88;98716;1164;84511;-60
2021/03/23 07:41:03;;;;;;;8.77;5.70;;;;;;;8.36;59.15;100575.97;98752;1158;78206;-59
2021/03/23 07:43:37;;;;;;;11.83;6.03;;;;;;;8.46;58.28;100582.84;98707;1155;64450;-61
2021/03/23 07:45:55;;;;;;;9.85;5.98;;;;;;;8.46;58.73;100582.02;98709;1155;82114;-61
2021/03/23 07:48:10;;;;;;;14.15;5.80;;;;;;;8.52;58.41;100571.39;98765;1155;71181;-61
2021/03/23 07:50:25;;;;;;;12.67;6.87;;;;;;;8.42;57.89;100580.67;98731;1155;84086;-59
2021/03/23 07:52:40;;;;;;;11.10;6.53;;;;;;;8.22;57.49;100582.84;98706;1155;78445;-65
2021/03/23 07:54:46;;;;;;;11.90;6.23;;;;;;;8.14;58.33;100574.78;98726;1155;64372;-64
2021/03/23 07:57:05;;;;;;;12.00;5.80;;;;;;;8.19;58.23;100572.42;98710;1159;82450;-65
2021/03/23 07:59:29;;;;;;;14.50;7.93;;;;;;;8.69;58.17;100573.03;98749;1161;71140;-67
2021/03/23 08:01:51;;;;;;;13.45;8.30;;;;;;;9.43;57.51;100571.69;98742;1161;83676;-66
2021/03/23 08:04:12;;;;;;;11.50;7.30;;;;;;;10.51;57.42;100570.50;98780;1155;76863;-66
2021/03/23 08:06:28;;;;;;;12.27;6.60;;;;;;;11.45;55.74;100572.39;98746;1155;64081;-63
2021/03/23 08:08:59;;;;;;;12.53;7.10;;;;;;;12.21;54.15;100571.72;98759;1161;81216;-64
2021/03/23 08:11:26;;;;;;;9.63;6.30;;;;;;;13.80;52.45;100578.64;98781;1159;71893;-60
2021/03/23 08:14:00;;;;;;;11.03;5.70;;;;;;;14.16;51.57;100572.84;98758;1159;83984;-61
2021/03/23 08:16:25;;;;;;;8.37;5.60;;;;;;;15.57;48.70;100573.00;98807;1155;76939;-61
2021/03/23 08:19:03;;;;;;;13.07;6.00;;;;;;;17.19;48.72;100576.47;98760;1155;64254;-61
2021/03/23 08:21:32;;;;;;;10.77;5.60;;;;;;;18.43;45.38;100578.51;98710;1161;82192;-65
2021/03/23 08:24:02;;;;;;;10.10;6.00;;;;;;;19.51;43.11;100581.54;98724;1155;70739;-64
2021/03/23 08:26:24;;;;;;;8.20;5.57;;;;;;;20.25;41.38;100575.86;98703;1159;84707;-59
2021/03/23 08:28:40;;;;;;;9.03;6.23;;;;;;;21.16;40.56;100588.28;98720;1155;78814;-60
2021/03/23 08:31:11;;;;;;;8.80;6.10;;;;;;;21.73;39.35;100575.80;98721;1154;64424;-61
2021/03/23 08:33:38;;;;;;;10.97;6.07;;;;;;;20.86;37.02;100593.30;98708;1159;82153;-61
2021/03/23 08:36:08;;;;;;;8.90;6.35;;;;;;;19.47;36.38;100592.17;98735;1155;71866;-61
2021/03/23 08:38:31;;;;;;;11.07;6.37;;;;;;;19.12;38.15;100597.67;98725;1155;84187;-66
2021/03/23 08:40:47;;;;;;;8.63;5.60;;;;;;;18.82;38.31;100591.51;98702;1155;77464;-65
2021/03/23 08:42:54;;;;;;;9.20;6.17;;;;;;;18.90;36.62;100588.41;98754;1154;64321;-61
2021/03/23 08:45:04;;;;;;;8.77;6.03;;;;;;;18.84;37.52;100587.46;98701;1161;81583;-61
2021/03/23 08:47:27;;;;;;;10.53;6.40;;;;;;;18.64;37.35;100600.69;98746;1161;71824;-61
2021/03/23 08:49:33;;;;;;;8.93;5.90;;;;;;;18.42;36.30;100604.19;98735;1155;84365;-61
2021/03/23 08:51:47;;;;;;;14.40;6.40;;;;;;;18.57;37.32;100593.67;98721;1155;78306;-64
2021/03/23 08:54:00;;;;;;;;;;;;;;;18.76;37.77;100596.03;98789;1161;64197;-63
2021/03/23 08:56:09;;;;;;;11.65;6.50;;;;;;;18.57;37.66;100599.95;98711;1161;81829;-63
2021/03/23 08:58:27;;;;;;;8.55;6.70;;;;;;;18.38;38.44;100597.51;98760;1155;71972;-62
2021/03/23 09:00:57;;;;;;;8.60;5.93;;;;;;;18.60;38.12;100601.38;98717;1161;84730;-69
2021/03/23 09:03:45;;;;;;;8.93;6.87;;;;;;;18.61;36.87;100600.31;98738;1155;78657;-66
2021/03/23 09:06:03;;;;;;;11.20;6.53;;;;;;;18.94;36.99;100606.03;98776;1155;64147;-66
2021/03/23 09:08:44;;;;;;;9.97;6.10;;;;;;;19.21;36.79;100600.88;98793;1161;82585;-65
2021/03/23 09:10:57;;;;;;;9.70;6.10;;;;;;;19.11;35.68;100596.03;98739;1154;70773;-59
2021/03/23 09:13:04;;;;;;;12.30;7.03;;;;;;;19.18;36.86;100596.72;98732;1153;84239;-65
2021/03/23 09:15:53;;;;;;;7.87;5.43;;;;;;;19.36;35.70;100604.80;98687;1161;78068;-66
2021/03/23 09:18:08;;;;;;;10.07;6.10;;;;;;;19.88;36.08;100588.33;98720;1155;64200;-62
2021/03/23 09:20:55;;;;;;;8.53;5.83;;;;;;;20.60;36.00;100595.66;98723;1161;83101;-64
2021/03/23 09:23:49;;;;;;;10.65;6.70;;;;;;;20.15;34.87;100599.51;98779;1155;71776;-64
2021/03/23 09:26:00;;;;;;;9.20;6.48;;;;;;;20.25;33.57;100592.31;98759;1155;84401;-61
2021/03/23 09:28:07;;;;;;;7.80;6.30;;;;;;;20.47;32.98;100601.48;98757;1155;77896;-62
2021/03/23 09:30:53;;;;;;;10.53;6.53;;;;;;;21.04;34.61;100595.79;98806;1155;64373;-61
2021/03/23 09:33:40;;;;;;;7.60;5.80;;;;;;;21.28;32.42;100602.75;98431;1164;81854;-62
2021/03/23 09:36:35;;;;;;;8.63;5.93;;;;;;;20.69;32.71;100609.80;98688;1155;70882;-62
2021/03/23 09:38:40;;;;;;;9.50;6.77;;;;;;;19.38;32.63;100619.12;98757;1155;84429;-62
2021/03/23 09:41:06;;;;;;;9.27;5.50;;;;;;;18.70;33.87;100618.06;98735;1155;77466;-65
2021/03/23 09:43:29;;;;;;;8.00;6.05;;;;;;;18.41;34.19;100619.77;98841;1137;64263;-61
2021/03/23 09:45:43;;;;;;;8.53;5.67;;;;;;;17.49;34.73;100631.98;98700;1155;81259;-63
2021/03/23 09:48:01;;;;;;;8.13;5.93;;;;;;;16.86;36.29;100628.69;98728;1161;70993;-59
2021/03/23 09:50:33;;;;;;;9.00;5.97;;;;;;;16.39;36.37;100635.56;98746;1161;84575;-64
2021/03/23 09:52:39;;;;;;;9.10;5.60;;;;;;;16.08;36.84;100637.45;98808;1154;77949;-68
2021/03/23 09:54:58;;;;;;;9.90;6.30;;;;;;;15.72;37.60;100640.78;98700;1155;64211;-64
2021/03/23 09:57:13;;;;;;;9.40;6.20;;;;;;;15.19;38.00;100643.67;98708;1160;80648;-62
2021/03/23 09:59:25;;;;;;;7.80;6.17;;;;;;;14.81;38.29;100650.84;98767;1155;71151;-65
2021/03/23 10:01:34;;;;;;;9.47;6.03;;;;;;;14.11;39.34;100645.98;98758;1154;84075;-67
2021/03/23 10:03:41;;;;;;;8.93;5.63;;;;;;;13.59;40.00;100647.52;98741;1155;78256;-64
2021/03/23 10:06:02;;;;;;;12.73;6.00;;;;;;;13.44;40.70;100648.67;98775;1155;64359;-60
2021/03/23 10:08:19;;;;;;;18.87;13.47;;;;;;;13.31;42.00;100652.17;98691;1163;82085;-61
2021/03/23 10:10:30;;;;;;;25.90;20.20;;;;;;;13.09;41.68;100649.74;98707;1155;70891;-62
2021/03/23 10:12:35;;;;;;;33.57;24.73;;;;;;;12.90;42.40;100643.97;98755;1155;83332;-65
2021/03/23 10:14:45;;;;;;;24.10;20.90;;;;;;;12.86;43.11;100642.68;98747;1161;78445;-66
2021/03/23 10:17:21;;;;;;;25.97;23.23;;;;;;;12.93;43.07;100642.73;98757;1155;64139;-62